sensor_id;sensor_type;location;lat;lon;timestamp;temperature;humidity
29237;DHT22;16266;50.866;4.398;2023-06-14T00:01:24;19.90;29.70
29237;DHT22;16266;50.866;4.398;2023-06-14T00:03:50;19.80;30.30
29237;DHT22;16266;50.866;4.398;2023-06-14T00:06:16;19.80;30.70
29237;DHT22;16266;50.866;4.398;2023-06-14T00:08:42;19.80;31.30
29237;DHT22;16266;50.866;4.398;2023-06-14T00:11:08;19.70;31.80
29237;DHT22;16266;50.866;4.398;2023-06-14T00:13:34;19.70;32.10
29237;DHT22;16266;50.866;4.398;2023-06-14T00:15:59;19.70;32.20
29237;DHT22;16266;50.866;4.398;2023-06-14T00:18:25;19.60;33.10
29237;DHT22;16266;50.866;4.398;2023-06-14T00:20:55;19.70;33.10
29237;DHT22;16266;50.866;4.398;2023-06-14T00:23:21;19.60;34.10
29237;DHT22;16266;50.866;4.398;2023-06-14T00:25:46;19.60;34.20
29237;DHT22;16266;50.866;4.398;2023-06-14T00:28:12;19.60;34.20
29237;DHT22;16266;50.866;4.398;2023-06-14T00:30:39;19.60;34.70
29237;DHT22;16266;50.866;4.398;2023-06-14T00:33:04;19.50;35.60
29237;DHT22;16266;50.866;4.398;2023-06-14T00:35:30;19.50;35.40
29237;DHT22;16266;50.866;4.398;2023-06-14T00:37:56;19.40;36.10
29237;DHT22;16266;50.866;4.398;2023-06-14T00:40:22;19.40;36.70
29237;DHT22;16266;50.866;4.398;2023-06-14T00:42:48;19.40;37.20
29237;DHT22;16266;50.866;4.398;2023-06-14T00:45:14;19.30;38.00
29237;DHT22;16266;50.866;4.398;2023-06-14T00:47:41;19.20;39.10
29237;DHT22;16266;50.866;4.398;2023-06-14T00:50:09;19.20;39.50
29237;DHT22;16266;50.866;4.398;2023-06-14T00:52:35;19.10;40.30
29237;DHT22;16266;50.866;4.398;2023-06-14T00:55:01;19.10;41.20
29237;DHT22;16266;50.866;4.398;2023-06-14T00:57:27;19.10;41.80
29237;DHT22;16266;50.866;4.398;2023-06-14T00:59:55;19.10;42.30
29237;DHT22;16266;50.866;4.398;2023-06-14T01:02:21;19.00;43.40
29237;DHT22;16266;50.866;4.398;2023-06-14T01:04:48;19.00;44.00
29237;DHT22;16266;50.866;4.398;2023-06-14T01:07:26;19.00;43.60
29237;DHT22;16266;50.866;4.398;2023-06-14T01:13:03;18.90;45.50
29237;DHT22;16266;50.866;4.398;2023-06-14T01:15:31;19.00;45.50
29237;DHT22;16266;50.866;4.398;2023-06-14T01:17:57;18.90;46.40
29237;DHT22;16266;50.866;4.398;2023-06-14T01:20:29;18.90;46.80
29237;DHT22;16266;50.866;4.398;2023-06-14T01:22:56;18.90;47.70
29237;DHT22;16266;50.866;4.398;2023-06-14T01:25:22;18.90;47.20
29237;DHT22;16266;50.866;4.398;2023-06-14T01:28:00;18.90;48.20
29237;DHT22;16266;50.866;4.398;2023-06-14T01:30:28;18.80;49.40
29237;DHT22;16266;50.866;4.398;2023-06-14T01:32:55;18.80;49.80
29237;DHT22;16266;50.866;4.398;2023-06-14T01:35:22;18.80;49.20
29237;DHT22;16266;50.866;4.398;2023-06-14T01:37:49;18.70;50.30
29237;DHT22;16266;50.866;4.398;2023-06-14T01:40:15;18.70;50.60
29237;DHT22;16266;50.866;4.398;2023-06-14T01:42:42;18.70;51.30
29237;DHT22;16266;50.866;4.398;2023-06-14T01:45:09;18.70;51.60
29237;DHT22;16266;50.866;4.398;2023-06-14T01:47:36;18.60;52.80
29237;DHT22;16266;50.866;4.398;2023-06-14T01:50:03;18.40;55.00
29237;DHT22;16266;50.866;4.398;2023-06-14T01:52:29;18.30;57.30
29237;DHT22;16266;50.866;4.398;2023-06-14T01:54:54;18.30;58.30
29237;DHT22;16266;50.866;4.398;2023-06-14T01:57:21;18.40;58.10
29237;DHT22;16266;50.866;4.398;2023-06-14T01:59:47;18.40;58.30
29237;DHT22;16266;50.866;4.398;2023-06-14T02:02:14;18.30;59.50
29237;DHT22;16266;50.866;4.398;2023-06-14T02:04:40;18.30;60.50
29237;DHT22;16266;50.866;4.398;2023-06-14T02:07:06;18.30;61.30
29237;DHT22;16266;50.866;4.398;2023-06-14T02:09:33;18.30;62.00
29237;DHT22;16266;50.866;4.398;2023-06-14T02:11:59;18.20;63.20
29237;DHT22;16266;50.866;4.398;2023-06-14T02:14:25;18.10;64.70
29237;DHT22;16266;50.866;4.398;2023-06-14T02:16:52;18.00;66.60
29237;DHT22;16266;50.866;4.398;2023-06-14T02:19:19;18.00;67.10
29237;DHT22;16266;50.866;4.398;2023-06-14T02:21:46;18.00;68.40
29237;DHT22;16266;50.866;4.398;2023-06-14T02:24:12;17.90;69.60
29237;DHT22;16266;50.866;4.398;2023-06-14T02:26:37;18.00;70.90
29237;DHT22;16266;50.866;4.398;2023-06-14T02:29:04;17.90;72.20
29237;DHT22;16266;50.866;4.398;2023-06-14T02:31:31;18.00;71.70
29237;DHT22;16266;50.866;4.398;2023-06-14T02:33:57;18.00;72.40
29237;DHT22;16266;50.866;4.398;2023-06-14T02:36:23;17.90;72.70
29237;DHT22;16266;50.866;4.398;2023-06-14T02:38:49;17.90;73.70
29237;DHT22;16266;50.866;4.398;2023-06-14T02:41:15;17.90;74.10
29237;DHT22;16266;50.866;4.398;2023-06-14T02:43:40;17.90;73.60
29237;DHT22;16266;50.866;4.398;2023-06-14T02:46:07;17.90;74.70
29237;DHT22;16266;50.866;4.398;2023-06-14T02:48:32;17.90;74.60
29237;DHT22;16266;50.866;4.398;2023-06-14T02:50:58;17.80;75.60
29237;DHT22;16266;50.866;4.398;2023-06-14T02:53:24;17.80;76.60
29237;DHT22;16266;50.866;4.398;2023-06-14T02:55:49;17.80;77.00
29237;DHT22;16266;50.866;4.398;2023-06-14T02:58:15;17.70;78.40
29237;DHT22;16266;50.866;4.398;2023-06-14T03:00:42;17.70;79.80
29237;DHT22;16266;50.866;4.398;2023-06-14T03:03:07;17.70;79.60
29237;DHT22;16266;50.866;4.398;2023-06-14T03:05:45;17.60;81.30
29237;DHT22;16266;50.866;4.398;2023-06-14T03:08:16;17.60;82.30
29237;DHT22;16266;50.866;4.398;2023-06-14T03:10:47;17.50;83.10
29237;DHT22;16266;50.866;4.398;2023-06-14T03:13:14;17.50;84.50
29237;DHT22;16266;50.866;4.398;2023-06-14T03:15:39;17.40;85.60
29237;DHT22;16266;50.866;4.398;2023-06-14T03:18:09;17.30;87.00
29237;DHT22;16266;50.866;4.398;2023-06-14T03:20:35;17.30;88.20
29237;DHT22;16266;50.866;4.398;2023-06-14T03:23:02;17.40;87.60
29237;DHT22;16266;50.866;4.398;2023-06-14T03:25:28;17.40;88.40
29237;DHT22;16266;50.866;4.398;2023-06-14T03:27:56;17.30;89.00
29237;DHT22;16266;50.866;4.398;2023-06-14T03:30:21;17.20;90.10
29237;DHT22;16266;50.866;4.398;2023-06-14T03:32:47;17.20;90.70
29237;DHT22;16266;50.866;4.398;2023-06-14T03:35:13;17.20;91.00
29237;DHT22;16266;50.866;4.398;2023-06-14T03:37:43;17.20;91.10
29237;DHT22;16266;50.866;4.398;2023-06-14T03:40:11;17.20;91.10
29237;DHT22;16266;50.866;4.398;2023-06-14T03:42:37;17.20;91.20
29237;DHT22;16266;50.866;4.398;2023-06-14T03:45:03;17.30;91.00
29237;DHT22;16266;50.866;4.398;2023-06-14T03:47:29;17.30;90.80
29237;DHT22;16266;50.866;4.398;2023-06-14T03:49:55;17.40;90.60
29237;DHT22;16266;50.866;4.398;2023-06-14T03:52:20;17.40;90.50
29237;DHT22;16266;50.866;4.398;2023-06-14T03:54:47;17.30;91.20
29237;DHT22;16266;50.866;4.398;2023-06-14T03:57:14;17.30;91.50
29237;DHT22;16266;50.866;4.398;2023-06-14T03:59:39;17.30;91.40
29237;DHT22;16266;50.866;4.398;2023-06-14T04:02:06;17.50;91.10
29237;DHT22;16266;50.866;4.398;2023-06-14T04:04:32;17.80;90.20
29237;DHT22;16266;50.866;4.398;2023-06-14T04:06:58;18.10;87.20
29237;DHT22;16266;50.866;4.398;2023-06-14T04:09:26;18.50;82.40
29237;DHT22;16266;50.866;4.398;2023-06-14T04:11:54;18.80;78.80
29237;DHT22;16266;50.866;4.398;2023-06-14T04:14:20;19.00;75.60
29237;DHT22;16266;50.866;4.398;2023-06-14T04:16:49;19.30;72.20
29237;DHT22;16266;50.866;4.398;2023-06-14T04:19:15;19.60;68.60
29237;DHT22;16266;50.866;4.398;2023-06-14T04:21:41;19.90;64.60
29237;DHT22;16266;50.866;4.398;2023-06-14T04:24:07;20.20;60.30
29237;DHT22;16266;50.866;4.398;2023-06-14T04:26:39;20.50;56.80
29237;DHT22;16266;50.866;4.398;2023-06-14T04:29:05;20.70;54.60
29237;DHT22;16266;50.866;4.398;2023-06-14T04:31:31;21.00;53.40
29237;DHT22;16266;50.866;4.398;2023-06-14T04:34:03;21.40;49.80
29237;DHT22;16266;50.866;4.398;2023-06-14T04:36:32;21.70;47.10
29237;DHT22;16266;50.866;4.398;2023-06-14T04:39:00;22.00;44.30
29237;DHT22;16266;50.866;4.398;2023-06-14T04:41:26;22.10;42.60
29237;DHT22;16266;50.866;4.398;2023-06-14T04:43:57;22.30;40.90
29237;DHT22;16266;50.866;4.398;2023-06-14T04:46:24;22.40;38.90
29237;DHT22;16266;50.866;4.398;2023-06-14T04:48:49;22.70;37.30
29237;DHT22;16266;50.866;4.398;2023-06-14T04:51:15;22.90;35.40
29237;DHT22;16266;50.866;4.398;2023-06-14T04:53:42;23.20;33.50
29237;DHT22;16266;50.866;4.398;2023-06-14T04:56:09;23.60;32.00
29237;DHT22;16266;50.866;4.398;2023-06-14T04:58:35;24.00;28.90
29237;DHT22;16266;50.866;4.398;2023-06-14T05:01:01;24.10;27.40
29237;DHT22;16266;50.866;4.398;2023-06-14T05:03:27;24.10;26.60
29237;DHT22;16266;50.866;4.398;2023-06-14T05:05:55;24.30;25.80
29237;DHT22;16266;50.866;4.398;2023-06-14T05:08:21;24.40;24.80
29237;DHT22;16266;50.866;4.398;2023-06-14T05:10:51;24.30;24.80
29237;DHT22;16266;50.866;4.398;2023-06-14T05:13:17;24.60;23.40
29237;DHT22;16266;50.866;4.398;2023-06-14T05:15:42;24.80;22.40
29237;DHT22;16266;50.866;4.398;2023-06-14T05:18:08;25.30;21.60
29237;DHT22;16266;50.866;4.398;2023-06-14T05:20:35;25.80;19.60
29237;DHT22;16266;50.866;4.398;2023-06-14T05:23:02;26.10;17.50
29237;DHT22;16266;50.866;4.398;2023-06-14T05:25:28;26.40;16.00
29237;DHT22;16266;50.866;4.398;2023-06-14T05:27:54;26.50;15.70
29237;DHT22;16266;50.866;4.398;2023-06-14T05:30:20;26.70;14.20
29237;DHT22;16266;50.866;4.398;2023-06-14T05:32:46;27.30;13.20
29237;DHT22;16266;50.866;4.398;2023-06-14T05:35:12;28.00;11.40
29237;DHT22;16266;50.866;4.398;2023-06-14T05:37:37;28.50;9.00
29237;DHT22;16266;50.866;4.398;2023-06-14T05:40:04;28.50;7.70
29237;DHT22;16266;50.866;4.398;2023-06-14T05:42:34;28.40;7.80
29237;DHT22;16266;50.866;4.398;2023-06-14T05:45:00;28.40;7.10
29237;DHT22;16266;50.866;4.398;2023-06-14T05:47:26;29.00;6.80
29237;DHT22;16266;50.866;4.398;2023-06-14T05:49:53;29.40;5.10
29237;DHT22;16266;50.866;4.398;2023-06-14T05:52:19;29.70;4.30
29237;DHT22;16266;50.866;4.398;2023-06-14T05:54:46;29.60;3.40
29237;DHT22;16266;50.866;4.398;2023-06-14T05:57:12;29.60;3.80
29237;DHT22;16266;50.866;4.398;2023-06-14T05:59:37;29.80;2.80
29237;DHT22;16266;50.866;4.398;2023-06-14T06:02:03;30.30;2.00
29237;DHT22;16266;50.866;4.398;2023-06-14T06:04:29;30.80;1.00
29237;DHT22;16266;50.866;4.398;2023-06-14T06:06:54;31.20;1.00
29237;DHT22;16266;50.866;4.398;2023-06-14T06:09:20;31.10;1.00
29237;DHT22;16266;50.866;4.398;2023-06-14T06:11:46;31.70;1.00
29237;DHT22;16266;50.866;4.398;2023-06-14T06:14:11;32.30;1.00
29237;DHT22;16266;50.866;4.398;2023-06-14T06:16:37;32.60;1.00
29237;DHT22;16266;50.866;4.398;2023-06-14T06:19:02;32.60;1.00
29237;DHT22;16266;50.866;4.398;2023-06-14T06:21:28;32.90;1.00
29237;DHT22;16266;50.866;4.398;2023-06-14T06:23:54;33.40;1.00
29237;DHT22;16266;50.866;4.398;2023-06-14T06:26:22;33.40;1.00
29237;DHT22;16266;50.866;4.398;2023-06-14T06:28:48;33.30;1.00
29237;DHT22;16266;50.866;4.398;2023-06-14T06:31:13;33.40;1.00
29237;DHT22;16266;50.866;4.398;2023-06-14T06:33:39;33.50;1.00
29237;DHT22;16266;50.866;4.398;2023-06-14T06:36:05;33.90;1.00
29237;DHT22;16266;50.866;4.398;2023-06-14T06:38:31;33.40;1.00
29237;DHT22;16266;50.866;4.398;2023-06-14T06:40:56;33.60;1.00
29237;DHT22;16266;50.866;4.398;2023-06-14T06:43:22;33.80;1.00
29237;DHT22;16266;50.866;4.398;2023-06-14T06:45:48;33.80;1.00
29237;DHT22;16266;50.866;4.398;2023-06-14T06:48:13;34.20;1.00
29237;DHT22;16266;50.866;4.398;2023-06-14T06:50:39;35.30;1.00
29237;DHT22;16266;50.866;4.398;2023-06-14T06:53:05;35.60;1.00
29237;DHT22;16266;50.866;4.398;2023-06-14T06:55:32;35.60;1.00
29237;DHT22;16266;50.866;4.398;2023-06-14T06:57:57;36.50;1.00
29237;DHT22;16266;50.866;4.398;2023-06-14T07:00:24;36.90;1.00
29237;DHT22;16266;50.866;4.398;2023-06-14T07:02:49;37.70;1.00
29237;DHT22;16266;50.866;4.398;2023-06-14T07:05:16;37.60;1.00
29237;DHT22;16266;50.866;4.398;2023-06-14T07:07:42;37.80;1.00
29237;DHT22;16266;50.866;4.398;2023-06-14T07:10:07;37.80;1.00
29237;DHT22;16266;50.866;4.398;2023-06-14T07:12:33;38.00;1.00
29237;DHT22;16266;50.866;4.398;2023-06-14T07:15:01;38.20;1.00
29237;DHT22;16266;50.866;4.398;2023-06-14T07:17:27;38.30;1.00
29237;DHT22;16266;50.866;4.398;2023-06-14T07:19:53;38.60;1.00
29237;DHT22;16266;50.866;4.398;2023-06-14T07:22:19;39.40;1.00
29237;DHT22;16266;50.866;4.398;2023-06-14T07:24:45;39.20;1.00
29237;DHT22;16266;50.866;4.398;2023-06-14T07:27:11;39.50;1.00
29237;DHT22;16266;50.866;4.398;2023-06-14T07:29:38;39.60;1.00
29237;DHT22;16266;50.866;4.398;2023-06-14T07:32:04;39.70;1.00
29237;DHT22;16266;50.866;4.398;2023-06-14T07:34:30;40.10;1.00
29237;DHT22;16266;50.866;4.398;2023-06-14T07:36:56;40.60;1.00
29237;DHT22;16266;50.866;4.398;2023-06-14T07:39:21;40.10;1.00
29237;DHT22;16266;50.866;4.398;2023-06-14T07:41:47;40.30;1.00
29237;DHT22;16266;50.866;4.398;2023-06-14T07:44:13;40.30;1.00
29237;DHT22;16266;50.866;4.398;2023-06-14T07:46:39;40.90;1.00
29237;DHT22;16266;50.866;4.398;2023-06-14T07:49:04;41.10;1.00
29237;DHT22;16266;50.866;4.398;2023-06-14T07:51:31;41.00;1.00
29237;DHT22;16266;50.866;4.398;2023-06-14T07:53:58;40.80;1.00
29237;DHT22;16266;50.866;4.398;2023-06-14T07:56:26;40.70;1.00
29237;DHT22;16266;50.866;4.398;2023-06-14T07:58:52;40.90;1.00
29237;DHT22;16266;50.866;4.398;2023-06-14T08:01:17;40.90;1.00
29237;DHT22;16266;50.866;4.398;2023-06-14T08:03:45;40.90;1.00
29237;DHT22;16266;50.866;4.398;2023-06-14T08:06:11;40.30;1.00
29237;DHT22;16266;50.866;4.398;2023-06-14T08:08:37;39.80;1.00
29237;DHT22;16266;50.866;4.398;2023-06-14T08:11:02;40.30;1.00
29237;DHT22;16266;50.866;4.398;2023-06-14T08:13:28;40.70;1.00
29237;DHT22;16266;50.866;4.398;2023-06-14T08:15:54;40.20;1.00
29237;DHT22;16266;50.866;4.398;2023-06-14T08:18:20;41.20;1.00
29237;DHT22;16266;50.866;4.398;2023-06-14T08:20:46;41.30;1.00
29237;DHT22;16266;50.866;4.398;2023-06-14T08:23:12;42.20;1.00
29237;DHT22;16266;50.866;4.398;2023-06-14T08:25:38;42.70;1.00
29237;DHT22;16266;50.866;4.398;2023-06-14T08:28:04;42.90;1.00
29237;DHT22;16266;50.866;4.398;2023-06-14T08:30:30;42.50;1.00
29237;DHT22;16266;50.866;4.398;2023-06-14T08:32:58;41.30;1.00
29237;DHT22;16266;50.866;4.398;2023-06-14T08:35:24;40.50;1.00
29237;DHT22;16266;50.866;4.398;2023-06-14T08:37:50;39.80;1.00
29237;DHT22;16266;50.866;4.398;2023-06-14T08:40:23;39.90;1.00
29237;DHT22;16266;50.866;4.398;2023-06-14T08:42:53;39.60;1.00
29237;DHT22;16266;50.866;4.398;2023-06-14T08:45:20;39.60;1.00
29237;DHT22;16266;50.866;4.398;2023-06-14T08:47:47;39.90;1.00
29237;DHT22;16266;50.866;4.398;2023-06-14T08:50:23;39.40;1.00
29237;DHT22;16266;50.866;4.398;2023-06-14T08:52:56;40.00;1.00
29237;DHT22;16266;50.866;4.398;2023-06-14T08:55:27;40.40;1.00
29237;DHT22;16266;50.866;4.398;2023-06-14T08:57:57;40.10;1.00
29237;DHT22;16266;50.866;4.398;2023-06-14T09:00:25;38.60;1.00
29237;DHT22;16266;50.866;4.398;2023-06-14T09:02:51;39.40;1.00
29237;DHT22;16266;50.866;4.398;2023-06-14T09:05:22;39.00;1.00
29237;DHT22;16266;50.866;4.398;2023-06-14T09:07:48;39.20;1.00
29237;DHT22;16266;50.866;4.398;2023-06-14T09:10:16;39.90;1.00
29237;DHT22;16266;50.866;4.398;2023-06-14T09:12:42;40.10;1.00
29237;DHT22;16266;50.866;4.398;2023-06-14T09:15:11;40.20;1.00
29237;DHT22;16266;50.866;4.398;2023-06-14T09:17:38;39.90;1.00
29237;DHT22;16266;50.866;4.398;2023-06-14T09:20:04;39.90;1.00
29237;DHT22;16266;50.866;4.398;2023-06-14T09:22:43;39.70;1.00
29237;DHT22;16266;50.866;4.398;2023-06-14T09:25:09;39.10;1.00
29237;DHT22;16266;50.866;4.398;2023-06-14T09:27:35;38.90;1.00
29237;DHT22;16266;50.866;4.398;2023-06-14T09:30:05;38.80;1.00
29237;DHT22;16266;50.866;4.398;2023-06-14T09:32:39;39.60;1.00
29237;DHT22;16266;50.866;4.398;2023-06-14T09:35:08;38.40;1.00
29237;DHT22;16266;50.866;4.398;2023-06-14T09:37:35;37.50;1.00
29237;DHT22;16266;50.866;4.398;2023-06-14T09:40:01;38.20;1.00
29237;DHT22;16266;50.866;4.398;2023-06-14T09:42:28;38.10;1.00
29237;DHT22;16266;50.866;4.398;2023-06-14T09:44:56;38.10;1.00
29237;DHT22;16266;50.866;4.398;2023-06-14T09:47:23;38.90;1.00
29237;DHT22;16266;50.866;4.398;2023-06-14T09:49:50;38.50;1.00
29237;DHT22;16266;50.866;4.398;2023-06-14T09:52:19;38.10;1.00
29237;DHT22;16266;50.866;4.398;2023-06-14T09:54:47;38.70;1.00
29237;DHT22;16266;50.866;4.398;2023-06-14T09:57:15;37.80;1.00
29237;DHT22;16266;50.866;4.398;2023-06-14T09:59:45;37.60;1.00
29237;DHT22;16266;50.866;4.398;2023-06-14T10:05:04;37.20;1.00
29237;DHT22;16266;50.866;4.398;2023-06-14T10:07:40;38.10;1.00
29237;DHT22;16266;50.866;4.398;2023-06-14T10:10:08;39.00;1.00
29237;DHT22;16266;50.866;4.398;2023-06-14T10:12:34;39.60;1.00
29237;DHT22;16266;50.866;4.398;2023-06-14T10:15:00;40.80;1.00
29237;DHT22;16266;50.866;4.398;2023-06-14T10:18:07;40.90;1.00
29237;DHT22;16266;50.866;4.398;2023-06-14T10:20:44;41.20;1.00
29237;DHT22;16266;50.866;4.398;2023-06-14T10:23:17;39.50;1.00
29237;DHT22;16266;50.866;4.398;2023-06-14T10:25:44;40.30;1.00
29237;DHT22;16266;50.866;4.398;2023-06-14T10:28:20;41.70;1.00
29237;DHT22;16266;50.866;4.398;2023-06-14T10:31:08;40.90;1.00
29237;DHT22;16266;50.866;4.398;2023-06-14T10:33:55;39.20;1.00
29237;DHT22;16266;50.866;4.398;2023-06-14T10:36:26;38.90;1.00
29237;DHT22;16266;50.866;4.398;2023-06-14T10:41:28;39.60;1.00
29237;DHT22;16266;50.866;4.398;2023-06-14T10:46:38;40.60;1.00
29237;DHT22;16266;50.866;4.398;2023-06-14T10:49:04;40.40;1.00
29237;DHT22;16266;50.866;4.398;2023-06-14T10:51:38;39.40;1.00
29237;DHT22;16266;50.866;4.398;2023-06-14T10:54:15;40.20;1.00
29237;DHT22;16266;50.866;4.398;2023-06-14T10:56:52;40.40;1.00
29237;DHT22;16266;50.866;4.398;2023-06-14T10:59:19;41.20;1.00
29237;DHT22;16266;50.866;4.398;2023-06-14T11:04:54;42.40;1.00
29237;DHT22;16266;50.866;4.398;2023-06-14T11:10:38;41.20;1.00
29237;DHT22;16266;50.866;4.398;2023-06-14T11:13:05;41.70;1.00
29237;DHT22;16266;50.866;4.398;2023-06-14T11:15:35;41.90;1.00
29237;DHT22;16266;50.866;4.398;2023-06-14T11:18:06;41.90;1.00
29237;DHT22;16266;50.866;4.398;2023-06-14T11:20:34;41.60;1.00
29237;DHT22;16266;50.866;4.398;2023-06-14T11:23:01;40.90;1.00
29237;DHT22;16266;50.866;4.398;2023-06-14T11:25:27;41.50;1.00
29237;DHT22;16266;50.866;4.398;2023-06-14T11:27:54;40.50;1.00
29237;DHT22;16266;50.866;4.398;2023-06-14T11:30:22;39.50;1.00
29237;DHT22;16266;50.866;4.398;2023-06-14T11:32:50;38.40;1.00
29237;DHT22;16266;50.866;4.398;2023-06-14T11:35:17;39.60;1.00
29237;DHT22;16266;50.866;4.398;2023-06-14T11:37:43;40.70;1.00
29237;DHT22;16266;50.866;4.398;2023-06-14T11:40:13;39.60;1.00
29237;DHT22;16266;50.866;4.398;2023-06-14T11:42:41;38.10;1.00
29237;DHT22;16266;50.866;4.398;2023-06-14T11:45:12;39.10;1.00
29237;DHT22;16266;50.866;4.398;2023-06-14T11:47:39;39.50;1.00
29237;DHT22;16266;50.866;4.398;2023-06-14T11:50:09;38.90;1.00
29237;DHT22;16266;50.866;4.398;2023-06-14T11:52:36;39.00;1.00
29237;DHT22;16266;50.866;4.398;2023-06-14T11:55:03;38.70;1.00
29237;DHT22;16266;50.866;4.398;2023-06-14T11:57:33;38.20;1.00
29237;DHT22;16266;50.866;4.398;2023-06-14T11:59:59;37.90;1.00
29237;DHT22;16266;50.866;4.398;2023-06-14T12:02:25;38.60;1.00
29237;DHT22;16266;50.866;4.398;2023-06-14T12:04:53;39.20;1.00
29237;DHT22;16266;50.866;4.398;2023-06-14T12:07:19;38.50;1.00
29237;DHT22;16266;50.866;4.398;2023-06-14T12:12:21;38.50;1.00
29237;DHT22;16266;50.866;4.398;2023-06-14T12:14:47;38.00;1.00
29237;DHT22;16266;50.866;4.398;2023-06-14T12:17:12;37.60;1.00
29237;DHT22;16266;50.866;4.398;2023-06-14T12:19:42;37.40;1.00
29237;DHT22;16266;50.866;4.398;2023-06-14T12:22:13;37.40;1.00
29237;DHT22;16266;50.866;4.398;2023-06-14T12:24:39;38.40;1.00
29237;DHT22;16266;50.866;4.398;2023-06-14T12:27:08;38.50;1.00
29237;DHT22;16266;50.866;4.398;2023-06-14T12:29:35;38.60;1.00
29237;DHT22;16266;50.866;4.398;2023-06-14T12:32:02;38.90;1.00
29237;DHT22;16266;50.866;4.398;2023-06-14T12:34:27;38.70;1.00
29237;DHT22;16266;50.866;4.398;2023-06-14T12:36:53;38.60;1.00
29237;DHT22;16266;50.866;4.398;2023-06-14T12:39:20;38.00;1.00
29237;DHT22;16266;50.866;4.398;2023-06-14T12:41:46;38.80;1.00
29237;DHT22;16266;50.866;4.398;2023-06-14T12:44:12;39.90;1.00
29237;DHT22;16266;50.866;4.398;2023-06-14T12:46:38;38.90;1.00
29237;DHT22;16266;50.866;4.398;2023-06-14T12:49:09;39.20;1.00
29237;DHT22;16266;50.866;4.398;2023-06-14T12:51:36;38.50;1.00
29237;DHT22;16266;50.866;4.398;2023-06-14T12:54:01;38.30;1.00
29237;DHT22;16266;50.866;4.398;2023-06-14T12:56:28;38.20;1.00
29237;DHT22;16266;50.866;4.398;2023-06-14T12:58:54;37.90;1.00
29237;DHT22;16266;50.866;4.398;2023-06-14T13:01:20;38.10;1.00
29237;DHT22;16266;50.866;4.398;2023-06-14T13:03:48;37.00;1.00
29237;DHT22;16266;50.866;4.398;2023-06-14T13:06:16;36.90;1.00
29237;DHT22;16266;50.866;4.398;2023-06-14T13:08:43;37.40;1.00
29237;DHT22;16266;50.866;4.398;2023-06-14T13:11:09;37.20;1.00
29237;DHT22;16266;50.866;4.398;2023-06-14T13:13:34;37.30;1.00
29237;DHT22;16266;50.866;4.398;2023-06-14T13:16:00;36.40;1.00
29237;DHT22;16266;50.866;4.398;2023-06-14T13:18:26;36.50;1.00
29237;DHT22;16266;50.866;4.398;2023-06-14T13:20:52;37.00;1.00
29237;DHT22;16266;50.866;4.398;2023-06-14T13:23:17;36.80;1.00
29237;DHT22;16266;50.866;4.398;2023-06-14T13:25:43;36.30;1.00
29237;DHT22;16266;50.866;4.398;2023-06-14T13:28:09;35.20;1.00
29237;DHT22;16266;50.866;4.398;2023-06-14T13:30:35;35.30;1.00
29237;DHT22;16266;50.866;4.398;2023-06-14T13:33:01;34.80;1.00
29237;DHT22;16266;50.866;4.398;2023-06-14T13:35:27;34.40;1.00
29237;DHT22;16266;50.866;4.398;2023-06-14T13:37:53;34.10;1.00
29237;DHT22;16266;50.866;4.398;2023-06-14T13:40:18;33.80;1.00
29237;DHT22;16266;50.866;4.398;2023-06-14T13:42:45;34.10;1.00
29237;DHT22;16266;50.866;4.398;2023-06-14T13:45:12;34.70;1.00
29237;DHT22;16266;50.866;4.398;2023-06-14T13:47:38;34.50;1.00
29237;DHT22;16266;50.866;4.398;2023-06-14T13:50:05;33.80;1.00
29237;DHT22;16266;50.866;4.398;2023-06-14T13:52:31;33.00;1.00
29237;DHT22;16266;50.866;4.398;2023-06-14T13:54:56;33.50;1.00
29237;DHT22;16266;50.866;4.398;2023-06-14T13:57:22;33.40;1.00
29237;DHT22;16266;50.866;4.398;2023-06-14T13:59:48;34.00;1.00
29237;DHT22;16266;50.866;4.398;2023-06-14T14:02:14;33.80;1.00
29237;DHT22;16266;50.866;4.398;2023-06-14T14:04:40;33.80;1.00
29237;DHT22;16266;50.866;4.398;2023-06-14T14:07:07;33.00;1.00
29237;DHT22;16266;50.866;4.398;2023-06-14T14:09:34;32.50;1.00
29237;DHT22;16266;50.866;4.398;2023-06-14T14:12:04;32.00;1.00
29237;DHT22;16266;50.866;4.398;2023-06-14T14:14:31;31.70;1.00
29237;DHT22;16266;50.866;4.398;2023-06-14T14:16:57;31.80;1.00
29237;DHT22;16266;50.866;4.398;2023-06-14T14:19:24;32.00;1.00
29237;DHT22;16266;50.866;4.398;2023-06-14T14:21:49;31.90;1.00
29237;DHT22;16266;50.866;4.398;2023-06-14T14:24:15;32.20;1.00
29237;DHT22;16266;50.866;4.398;2023-06-14T14:26:42;32.40;1.00
29237;DHT22;16266;50.866;4.398;2023-06-14T14:29:08;31.70;1.00
29237;DHT22;16266;50.866;4.398;2023-06-14T14:31:36;31.30;1.00
29237;DHT22;16266;50.866;4.398;2023-06-14T14:34:02;31.20;1.00
29237;DHT22;16266;50.866;4.398;2023-06-14T14:36:28;31.00;1.00
29237;DHT22;16266;50.866;4.398;2023-06-14T14:38:53;31.10;1.00
29237;DHT22;16266;50.866;4.398;2023-06-14T14:41:19;30.70;1.00
29237;DHT22;16266;50.866;4.398;2023-06-14T14:43:45;30.30;1.00
29237;DHT22;16266;50.866;4.398;2023-06-14T14:46:11;30.40;1.00
29237;DHT22;16266;50.866;4.398;2023-06-14T14:48:36;30.50;1.00
29237;DHT22;16266;50.866;4.398;2023-06-14T14:51:02;30.40;1.00
29237;DHT22;16266;50.866;4.398;2023-06-14T14:53:28;30.10;1.00
29237;DHT22;16266;50.866;4.398;2023-06-14T14:55:54;30.00;1.00
29237;DHT22;16266;50.866;4.398;2023-06-14T14:58:20;30.00;1.00
29237;DHT22;16266;50.866;4.398;2023-06-14T15:00:46;29.90;1.00
29237;DHT22;16266;50.866;4.398;2023-06-14T15:03:12;30.00;1.00
29237;DHT22;16266;50.866;4.398;2023-06-14T15:05:38;29.90;1.00
29237;DHT22;16266;50.866;4.398;2023-06-14T15:08:04;29.40;1.00
29237;DHT22;16266;50.866;4.398;2023-06-14T15:10:36;29.20;1.00
29237;DHT22;16266;50.866;4.398;2023-06-14T15:13:01;28.90;1.00
29237;DHT22;16266;50.866;4.398;2023-06-14T15:15:27;28.80;1.00
29237;DHT22;16266;50.866;4.398;2023-06-14T15:17:52;28.40;1.00
29237;DHT22;16266;50.866;4.398;2023-06-14T15:20:18;28.50;1.00
29237;DHT22;16266;50.866;4.398;2023-06-14T15:22:44;28.50;1.00
29237;DHT22;16266;50.866;4.398;2023-06-14T15:25:10;28.50;1.00
29237;DHT22;16266;50.866;4.398;2023-06-14T15:27:35;28.40;1.00
29237;DHT22;16266;50.866;4.398;2023-06-14T15:30:01;28.10;1.00
29237;DHT22;16266;50.866;4.398;2023-06-14T15:32:27;27.90;1.00
29237;DHT22;16266;50.866;4.398;2023-06-14T15:34:52;27.70;1.00
29237;DHT22;16266;50.866;4.398;2023-06-14T15:37:18;27.50;1.00
29237;DHT22;16266;50.866;4.398;2023-06-14T15:39:44;27.40;1.00
29237;DHT22;16266;50.866;4.398;2023-06-14T15:42:10;27.50;1.00
29237;DHT22;16266;50.866;4.398;2023-06-14T15:44:36;27.60;1.00
29237;DHT22;16266;50.866;4.398;2023-06-14T15:47:02;27.70;1.00
29237;DHT22;16266;50.866;4.398;2023-06-14T15:49:28;27.50;1.00
29237;DHT22;16266;50.866;4.398;2023-06-14T15:51:55;27.40;1.00
29237;DHT22;16266;50.866;4.398;2023-06-14T15:54:20;27.40;1.00
29237;DHT22;16266;50.866;4.398;2023-06-14T15:56:46;27.40;1.00
29237;DHT22;16266;50.866;4.398;2023-06-14T15:59:12;27.20;1.00